Time;durP1;ratioP1;P1;durP2;ratioP2;P2;SDS_P1;SDS_P2;PMS_P1;PMS_P2;Temp;Humidity;BMP_temperature;BMP_pressure;BME280_temperature;BME280_humidity;BME280_pressure;Samples;Min_cycle;Max_cycle;Signal;HPM_P1;HPM_P2
2022/09/13 00:00:26;;;;;;;4.60;2.00;;;23.80;48.80;;;;;;5066826;28;45458;-72
2022/09/13 00:02:54;;;;;;;2.28;1.80;;;23.80;48.80;;;;;;5066377;28;45249;-71
2022/09/13 00:05:21;;;;;;;3.00;2.03;;;23.80;49.50;;;;;;5066438;28;45263;-72
2022/09/13 00:07:48;;;;;;;2.05;1.80;;;23.80;48.90;;;;;;5066564;28;45340;-71
2022/09/13 00:10:15;;;;;;;3.95;1.92;;;23.70;48.80;;;;;;5066627;28;45238;-71
2022/09/13 00:12:42;;;;;;;3.20;1.80;;;23.80;48.80;;;;;;5066325;28;46407;-71
2022/09/13 00:15:10;;;;;;;4.40;2.10;;;23.70;48.70;;;;;;5065959;28;45189;-71
2022/09/13 00:17:37;;;;;;;2.67;1.60;;;23.70;48.70;;;;;;5065868;28;45230;-71
2022/09/13 00:20:07;;;;;;;1.88;1.70;;;23.70;48.80;;;;;;5066371;28;45353;-71
2022/09/13 00:22:34;;;;;;;3.40;1.83;;;23.70;48.70;;;;;;5065951;28;46437;-71
2022/09/13 00:25:01;;;;;;;4.03;1.77;;;23.70;48.80;;;;;;5066168;28;45216;-71
2022/09/13 00:27:28;;;;;;;1.90;1.60;;;23.70;48.70;;;;;;5066352;28;45355;-71
2022/09/13 00:29:55;;;;;;;3.33;1.60;;;23.60;48.70;;;;;;5066395;28;45379;-71
2022/09/13 00:32:21;;;;;;;2.22;1.73;;;23.60;48.80;;;;;;5066030;28;45425;-71
2022/09/13 00:34:48;;;;;;;3.33;1.52;;;23.60;48.80;;;;;;5066077;28;45162;-71
2022/09/13 00:37:16;;;;;;;5.15;1.88;;;23.60;48.70;;;;;;5066263;28;45162;-71
2022/09/13 00:39:43;;;;;;;2.03;1.83;;;23.60;48.80;;;;;;5067056;28;45496;-71
2022/09/13 00:42:11;;;;;;;1.50;1.40;;;23.50;48.70;;;;;;5069532;28;45309;-72
2022/09/13 00:44:58;;;;;;;1.75;1.65;;;23.50;48.80;;;;;;5069320;28;45326;-71
2022/09/13 00:47:35;;;;;;;3.60;1.60;;;23.50;48.80;;;;;;5069531;28;45131;-71
2022/09/13 00:50:06;;;;;;;1.80;1.50;;;23.50;48.70;;;;;;5069682;28;45395;-71
2022/09/13 00:52:34;;;;;;;1.48;1.38;;;23.50;48.80;;;;;;5069339;28;47197;-71
2022/09/13 00:55:03;;;;;;;2.03;1.80;;;23.50;48.80;;;;;;5069350;28;45206;-71
2022/09/13 00:57:30;;;;;;;2.15;1.30;;;23.50;48.80;;;;;;5069450;28;45245;-71
2022/09/13 00:59:59;;;;;;;2.85;1.52;;;23.40;48.80;;;;;;5069520;28;45229;-71
2022/09/13 01:02:26;;;;;;;1.88;1.58;;;23.40;48.70;;;;;;5069251;28;45194;-71
2022/09/13 01:04:52;;;;;;;1.70;1.60;;;23.40;48.80;;;;;;5069223;28;45238;-71
2022/09/13 01:07:19;;;;;;;1.40;1.30;;;23.40;48.80;;;;;;5069379;28;45339;-71
2022/09/13 01:09:48;;;;;;;1.40;1.30;;;23.40;48.80;;;;;;5069582;28;45349;-71
2022/09/13 01:12:17;;;;;;;1.67;1.50;;;23.40;48.80;;;;;;5068981;28;46817;-71
2022/09/13 01:14:44;;;;;;;2.20;1.42;;;23.40;48.90;;;;;;5066154;28;45597;-71
2022/09/13 01:17:11;;;;;;;1.50;1.40;;;23.30;48.80;;;;;;5068256;28;45264;-71
2022/09/13 01:19:38;;;;;;;1.45;1.35;;;23.40;48.90;;;;;;5069215;28;45282;-71
2022/09/13 01:22:32;;;;;;;2.47;1.80;;;23.30;48.90;;;;;;5064991;28;45467;-71
2022/09/13 01:25:20;;;;;;;1.98;1.40;;;23.30;48.80;;;;;;5068300;28;45251;-71
2022/09/13 01:27:58;;;;;;;1.50;1.20;;;23.30;48.90;;;;;;5069123;28;45172;-71
2022/09/13 01:30:26;;;;;;;1.42;1.33;;;23.30;49.00;;;;;;5069227;28;45326;-72
2022/09/13 01:33:26;;;;;;;1.55;1.45;;;23.30;48.80;;;;;;5068259;28;46410;-71
2022/09/13 01:36:14;;;;;;;1.27;1.20;;;23.20;48.80;;;;;;5074160;28;45248;-71
2022/09/13 01:38:50;;;;;;;1.42;1.33;;;23.20;48.90;;;;;;5089005;28;45311;-71
2022/09/13 01:41:37;;;;;;;1.58;1.23;;;23.20;49.00;;;;;;5089322;28;45275;-71
2022/09/13 01:44:07;;;;;;;1.38;1.27;;;23.20;48.80;;;;;;5088250;28;46372;-71
2022/09/13 01:46:38;;;;;;;1.77;1.52;;;23.20;49.10;;;;;;5088520;28;45245;-71
2022/09/13 01:49:09;;;;;;;1.50;1.40;;;23.20;49.00;;;;;;5088480;28;45299;-71
2022/09/13 01:51:38;;;;;;;1.30;1.30;;;23.10;49.10;;;;;;5087713;28;45616;-71
2022/09/13 01:54:12;;;;;;;1.40;1.30;;;23.10;49.10;;;;;;5088160;28;46928;-71
2022/09/13 01:56:40;;;;;;;1.33;1.08;;;23.10;48.80;;;;;;5088279;28;45281;-71
2022/09/13 01:59:13;;;;;;;1.80;1.35;;;23.10;48.90;;;;;;5088572;28;45179;-71
2022/09/13 02:01:42;;;;;;;1.27;1.17;;;23.10;49.00;;;;;;5088529;28;45167;-71
2022/09/13 02:04:12;;;;;;;1.30;1.20;;;23.00;49.00;;;;;;5088023;28;45268;-71
2022/09/13 02:06:40;;;;;;;1.95;1.20;;;23.00;48.90;;;;;;5088074;28;45315;-71
2022/09/13 02:09:09;;;;;;;1.35;1.23;;;23.00;49.00;;;;;;5088007;28;45177;-71
2022/09/13 02:11:36;;;;;;;1.40;1.30;;;23.00;48.90;;;;;;5088248;28;45291;-71
2022/09/13 02:14:05;;;;;;;1.05;1.05;;;23.00;49.00;;;;;;5083100;28;46370;-71
2022/09/13 02:16:34;;;;;;;1.35;1.25;;;23.00;49.10;;;;;;5067218;28;45261;-71
2022/09/13 02:19:04;;;;;;;1.20;1.10;;;23.00;49.00;;;;;;5067774;28;45320;-71
2022/09/13 02:21:32;;;;;;;1.33;1.17;;;23.00;48.90;;;;;;5070603;28;45246;-71
2022/09/13 02:24:01;;;;;;;1.58;1.08;;;23.00;49.60;;;;;;5087537;28;45465;-71
2022/09/13 02:26:28;;;;;;;1.40;1.30;;;23.00;49.00;;;;;;5087721;28;45304;-69
2022/09/13 02:28:56;;;;;;;1.50;1.10;;;22.90;48.90;;;;;;5087913;28;45249;-69
2022/09/13 02:31:25;;;;;;;1.25;1.15;;;22.90;48.90;;;;;;5088065;28;45408;-69
2022/09/13 02:33:53;;;;;;;1.17;1.13;;;22.90;49.00;;;;;;5087656;28;46934;-69
2022/09/13 02:36:22;;;;;;;1.55;1.45;;;22.90;49.10;;;;;;5072293;28;45284;-69
2022/09/13 02:38:51;;;;;;;2.03;1.20;;;22.90;49.60;;;;;;5067536;28;45189;-69
2022/09/13 02:41:19;;;;;;;0.98;0.98;;;22.90;49.20;;;;;;5067583;28;45313;-69
2022/09/13 02:43:47;;;;;;;1.65;1.00;;;22.90;49.20;;;;;;5067043;28;45218;-69
2022/09/13 02:46:20;;;;;;;1.67;1.25;;;22.80;49.60;;;;;;5067033;28;45174;-69
2022/09/13 02:48:51;;;;;;;1.25;1.15;;;22.80;49.10;;;;;;5067263;28;45291;-71
2022/09/13 02:51:20;;;;;;;1.02;1.02;;;22.80;49.10;;;;;;5067237;28;45269;-71
2022/09/13 02:53:50;;;;;;;1.40;1.30;;;22.80;49.10;;;;;;5067018;28;45256;-71
2022/09/13 02:56:20;;;;;;;1.00;1.00;;;22.70;49.10;;;;;;5067016;28;45392;-71
2022/09/13 02:58:50;;;;;;;1.00;1.00;;;22.70;49.20;;;;;;5065524;28;45277;-71
2022/09/13 03:01:17;;;;;;;1.40;1.30;;;22.70;49.10;;;;;;5067192;28;45331;-71
2022/09/13 03:03:43;;;;;;;1.13;0.98;;;22.70;49.20;;;;;;5066544;28;46366;-71
2022/09/13 03:06:10;;;;;;;2.15;1.20;;;22.70;49.10;;;;;;5066677;28;45247;-71
2022/09/13 03:08:37;;;;;;;1.38;1.27;;;22.70;49.10;;;;;;5067015;28;45247;-71
2022/09/13 03:11:11;;;;;;;0.98;0.98;;;22.70;49.10;;;;;;5066980;28;45498;-71
2022/09/13 03:13:45;;;;;;;1.05;1.05;;;22.70;49.30;;;;;;5066538;28;46425;-71
2022/09/13 03:16:20;;;;;;;1.25;1.10;;;22.70;49.30;;;;;;5066315;28;45517;-71
2022/09/13 03:18:55;;;;;;;0.90;0.90;;;22.70;49.20;;;;;;5064210;28;45218;-71
2022/09/13 03:21:38;;;;;;;1.23;1.13;;;22.60;49.20;;;;;;5068420;28;45418;-71
2022/09/13 03:24:08;;;;;;;1.48;1.13;;;22.60;49.10;;;;;;5086697;28;47240;-71
2022/09/13 03:26:42;;;;;;;1.13;1.00;;;22.60;49.20;;;;;;5086803;28;45248;-71
2022/09/13 03:29:20;;;;;;;2.15;1.25;;;22.60;49.20;;;;;;5086950;28;45152;-71
2022/09/13 03:31:50;;;;;;;1.10;1.10;;;22.60;49.90;;;;;;5086961;28;45341;-70
2022/09/13 03:34:19;;;;;;;1.23;1.20;;;22.60;49.30;;;;;;5086604;28;45489;-71
2022/09/13 03:36:47;;;;;;;1.00;1.00;;;22.60;49.20;;;;;;5067630;28;45365;-71
2022/09/13 03:39:18;;;;;;;1.10;1.05;;;22.60;49.30;;;;;;5066321;28;45245;-71
2022/09/13 03:41:49;;;;;;;1.27;1.20;;;22.50;49.30;;;;;;5066453;28;45172;-71
2022/09/13 03:44:16;;;;;;;1.10;1.00;;;22.50;49.30;;;;;;5065331;28;47121;-71
2022/09/13 03:46:44;;;;;;;1.10;1.00;;;22.50;49.20;;;;;;5065610;28;45273;-71
2022/09/13 03:49:12;;;;;;;1.30;1.20;;;22.50;49.40;;;;;;5066384;28;45439;-71
2022/09/13 03:51:39;;;;;;;1.08;1.08;;;22.50;49.40;;;;;;5066366;28;45298;-71
2022/09/13 03:54:07;;;;;;;1.25;1.15;;;22.50;49.40;;;;;;5067237;28;46427;-71
2022/09/13 03:56:34;;;;;;;1.25;1.15;;;22.50;49.40;;;;;;5066116;28;45221;-71
2022/09/13 03:59:02;;;;;;;1.00;1.00;;;22.40;49.30;;;;;;5066471;28;45398;-71
2022/09/13 04:01:29;;;;;;;1.20;1.10;;;22.40;49.30;;;;;;5066300;28;45280;-71
2022/09/13 04:03:56;;;;;;;0.95;0.95;;;22.40;49.30;;;;;;5065762;28;46816;-71
2022/09/13 04:06:23;;;;;;;1.00;1.00;;;22.40;49.40;;;;;;5066036;28;45243;-71
2022/09/13 04:08:50;;;;;;;1.02;1.02;;;22.40;49.40;;;;;;5065957;28;45255;-71
2022/09/13 04:11:17;;;;;;;1.52;1.05;;;22.40;49.40;;;;;;5066264;28;45573;-70
2022/09/13 04:13:43;;;;;;;1.27;1.17;;;22.40;50.10;;;;;;5065479;28;46563;-71
2022/09/13 04:16:12;;;;;;;1.20;0.90;;;22.40;49.40;;;;;;5068548;28;45590;-71
2022/09/13 04:18:38;;;;;;;0.90;0.90;;;22.40;49.40;;;;;;5069615;28;45185;-71
2022/09/13 04:21:06;;;;;;;0.82;0.82;;;22.30;49.40;;;;;;5069636;28;45229;-71
2022/09/13 04:23:33;;;;;;;2.60;1.23;;;22.30;49.30;;;;;;5069372;28;45294;-71
2022/09/13 04:26:03;;;;;;;1.25;1.15;;;22.30;49.40;;;;;;5069213;28;45308;-71
2022/09/13 04:28:29;;;;;;;1.10;1.00;;;22.30;49.50;;;;;;5069240;28;45214;-71
2022/09/13 04:30:56;;;;;;;0.80;0.80;;;22.20;49.40;;;;;;5069550;28;45310;-71
2022/09/13 04:33:24;;;;;;;1.10;1.00;;;22.30;49.50;;;;;;5069060;28;46679;-71
2022/09/13 04:35:55;;;;;;;1.33;1.23;;;22.30;49.50;;;;;;5069056;28;45181;-71
2022/09/13 04:38:22;;;;;;;0.80;0.80;;;22.20;49.50;;;;;;5069049;28;45308;-71
2022/09/13 04:40:53;;;;;;;0.93;0.93;;;22.20;49.40;;;;;;5069218;28;45471;-71
2022/09/13 04:43:20;;;;;;;0.98;0.98;;;22.20;49.40;;;;;;5068914;28;46514;-71
2022/09/13 04:45:47;;;;;;;0.90;0.90;;;22.20;49.50;;;;;;5068858;28;45269;-71
2022/09/13 04:48:14;;;;;;;1.20;0.90;;;22.20;49.50;;;;;;5069001;28;45387;-71
2022/09/13 04:50:43;;;;;;;0.90;0.90;;;22.20;49.60;;;;;;5069381;28;45297;-71
2022/09/13 04:53:10;;;;;;;1.02;1.00;;;22.20;49.60;;;;;;5068777;28;46371;-71
2022/09/13 04:55:37;;;;;;;0.98;0.98;;;22.20;49.50;;;;;;5068891;28;45322;-71
2022/09/13 04:58:04;;;;;;;1.20;1.10;;;22.10;49.50;;;;;;5069014;28;45266;-71
2022/09/13 05:00:31;;;;;;;1.10;1.00;;;22.10;49.60;;;;;;5068990;28;45221;-71
2022/09/13 05:02:58;;;;;;;0.90;0.90;;;22.10;49.60;;;;;;5068439;28;46657;-71
2022/09/13 05:05:27;;;;;;;1.13;1.02;;;22.10;49.60;;;;;;5068665;28;45178;-71
2022/09/13 05:07:55;;;;;;;1.08;1.00;;;22.10;49.50;;;;;;5068862;28;45311;-71
2022/09/13 05:10:23;;;;;;;1.00;1.00;;;22.10;49.60;;;;;;5068866;28;45189;-71
2022/09/13 05:12:50;;;;;;;1.85;1.10;;;22.10;49.60;;;;;;5068471;28;46718;-71
2022/09/13 05:15:17;;;;;;;1.45;0.88;;;22.10;49.60;;;;;;5068031;28;45336;-71
2022/09/13 05:17:43;;;;;;;1.02;1.00;;;22.10;49.60;;;;;;5068540;28;45344;-71
2022/09/13 05:20:11;;;;;;;0.90;0.90;;;22.10;49.60;;;;;;5068837;28;45392;-71
2022/09/13 05:22:38;;;;;;;0.93;0.93;;;22.00;49.70;;;;;;5068505;28;46515;-71
2022/09/13 05:25:08;;;;;;;1.15;1.05;;;22.00;49.70;;;;;;5068336;28;45300;-71
2022/09/13 05:27:34;;;;;;;1.40;1.20;;;22.00;49.60;;;;;;5067137;28;45255;-71
2022/09/13 05:30:01;;;;;;;0.90;0.90;;;22.00;50.30;;;;;;5068619;28;45285;-71
2022/09/13 05:32:28;;;;;;;1.13;0.98;;;22.00;49.70;;;;;;5068177;28;47302;-71
2022/09/13 05:34:55;;;;;;;1.30;1.20;;;22.00;49.70;;;;;;5068080;28;45211;-71
2022/09/13 05:37:22;;;;;;;0.98;0.98;;;22.00;50.30;;;;;;5068168;28;45320;-71
2022/09/13 05:39:48;;;;;;;1.17;1.05;;;22.00;49.70;;;;;;5068651;28;45384;-71
2022/09/13 05:42:17;;;;;;;0.85;0.85;;;22.00;49.70;;;;;;5067948;28;45375;-71
2022/09/13 05:44:43;;;;;;;1.20;1.08;;;22.00;49.70;;;;;;5067945;28;45307;-71
2022/09/13 05:47:12;;;;;;;1.25;1.15;;;22.00;49.80;;;;;;5068211;28;45278;-70
2022/09/13 05:49:39;;;;;;;0.77;0.77;;;22.00;49.80;;;;;;5068195;28;45387;-71
2022/09/13 05:52:06;;;;;;;1.92;1.00;;;22.00;49.80;;;;;;5067811;28;45337;-71
2022/09/13 05:54:33;;;;;;;1.20;1.10;;;22.00;49.80;;;;;;5067889;28;45225;-71
2022/09/13 05:56:59;;;;;;;1.77;1.00;;;22.00;49.80;;;;;;5074935;28;45224;-71
2022/09/13 05:59:28;;;;;;;2.97;0.98;;;22.00;49.80;;;;;;5088470;28;45381;-71
2022/09/13 06:01:55;;;;;;;0.98;0.90;;;22.00;49.80;;;;;;5088096;28;46494;-71
2022/09/13 06:04:21;;;;;;;2.97;1.10;;;22.00;49.80;;;;;;5087957;28;45327;-71
2022/09/13 06:06:48;;;;;;;1.10;1.00;;;22.00;49.80;;;;;;5088182;28;45203;-70
2022/09/13 06:09:15;;;;;;;1.13;1.13;;;21.90;49.80;;;;;;5088323;28;45537;-71
2022/09/13 06:11:42;;;;;;;2.38;0.98;;;21.90;49.80;;;;;;5087806;28;45411;-71
2022/09/13 06:14:09;;;;;;;1.95;1.00;;;21.90;49.80;;;;;;5082015;28;45323;-71
2022/09/13 06:16:37;;;;;;;2.25;1.35;;;21.90;49.80;;;;;;5067434;28;45359;-71
2022/09/13 06:19:04;;;;;;;2.13;1.67;;;21.90;49.80;;;;;;5067753;28;45246;-71
2022/09/13 06:21:31;;;;;;;3.50;1.48;;;21.90;50.20;;;;;;5064610;28;46481;-71
2022/09/13 06:23:58;;;;;;;1.42;1.33;;;22.00;50.30;;;;;;5067499;28;45228;-71
2022/09/13 06:26:25;;;;;;;1.85;1.70;;;21.90;50.30;;;;;;5067352;28;45284;-71
2022/09/13 06:28:53;;;;;;;5.30;1.70;;;21.90;50.50;;;;;;5067362;28;45582;-72
2022/09/13 06:31:21;;;;;;;2.95;1.77;;;21.90;50.70;;;;;;5067071;28;45174;-71
2022/09/13 06:33:49;;;;;;;2.30;1.83;;;21.90;50.90;;;;;;5065469;28;45384;-71
2022/09/13 06:36:17;;;;;;;2.72;1.83;;;22.00;50.80;;;;;;5067212;28;45241;-71
2022/09/13 06:38:44;;;;;;;3.72;1.67;;;22.00;50.90;;;;;;5066991;28;45180;-71
2022/09/13 06:41:11;;;;;;;6.50;2.22;;;21.90;50.90;;;;;;5066760;28;46409;-71
2022/09/13 06:43:38;;;;;;;2.17;1.70;;;21.90;50.80;;;;;;5066704;28;45371;-71
2022/09/13 06:46:06;;;;;;;2.50;2.00;;;22.00;50.90;;;;;;5067071;28;45372;-71
2022/09/13 06:48:33;;;;;;;5.30;2.28;;;22.00;50.80;;;;;;5067223;28;45399;-71
2022/09/13 06:51:02;;;;;;;3.20;1.70;;;22.00;50.90;;;;;;5066829;28;47688;-72
2022/09/13 06:53:29;;;;;;;2.25;1.48;;;22.00;50.80;;;;;;5066914;28;45438;-72
2022/09/13 06:56:03;;;;;;;2.30;1.60;;;22.00;51.00;;;;;;5066920;28;45312;-72
2022/09/13 06:58:30;;;;;;;3.30;1.55;;;22.00;50.80;;;;;;5066946;28;45489;-72
2022/09/13 07:01:08;;;;;;;2.22;1.85;;;22.00;50.80;;;;;;5066521;28;45473;-72
2022/09/13 07:03:35;;;;;;;4.78;1.80;;;22.00;50.90;;;;;;5066225;28;45215;-72
2022/09/13 07:06:09;;;;;;;1.48;1.17;;;22.00;50.90;;;;;;5066931;28;45250;-72
2022/09/13 07:08:36;;;;;;;1.75;1.35;;;22.00;50.90;;;;;;5066966;28;45512;-72
2022/09/13 07:11:02;;;;;;;1.77;1.30;;;22.00;51.00;;;;;;5066601;28;45230;-72
2022/09/13 07:13:29;;;;;;;3.15;1.40;;;22.00;51.00;;;;;;5066503;28;45328;-71
2022/09/13 07:15:56;;;;;;;2.28;1.48;;;22.00;50.90;;;;;;5046235;28;45530;-72
2022/09/13 07:18:23;;;;;;;1.90;1.42;;;22.00;51.40;;;;;;5046767;28;45460;-72
2022/09/13 07:20:50;;;;;;;2.58;1.30;;;22.00;51.10;;;;;;5046842;28;45300;-72
2022/09/13 07:23:18;;;;;;;1.80;1.40;;;22.00;51.00;;;;;;5066142;28;45261;-71
2022/09/13 07:25:45;;;;;;;2.38;1.25;;;22.00;50.90;;;;;;5066254;28;45276;-71
2022/09/13 07:28:11;;;;;;;2.00;1.65;;;22.10;50.90;;;;;;5064896;28;45308;-71
2022/09/13 07:30:38;;;;;;;1.90;1.30;;;22.10;50.80;;;;;;5065934;28;46392;-71
2022/09/13 07:33:05;;;;;;;2.55;1.30;;;22.10;50.80;;;;;;5066083;28;45300;-72
2022/09/13 07:35:32;;;;;;;1.88;1.45;;;22.10;50.80;;;;;;5066261;28;45209;-72
2022/09/13 07:37:59;;;;;;;1.52;1.40;;;22.10;50.70;;;;;;5066535;28;45384;-72
2022/09/13 07:40:27;;;;;;;1.67;1.58;;;22.10;50.80;;;;;;5066118;28;46359;-72
2022/09/13 07:42:53;;;;;;;1.35;1.25;;;22.10;50.80;;;;;;5066968;28;45223;-72
2022/09/13 07:45:22;;;;;;;2.88;1.35;;;22.10;50.90;;;;;;5066877;28;45197;-72
2022/09/13 07:47:52;;;;;;;2.22;1.50;;;22.10;50.90;;;;;;5066882;28;45555;-71
2022/09/13 07:50:19;;;;;;;1.40;1.30;;;22.10;50.90;;;;;;5064891;28;46614;-72
2022/09/13 07:52:46;;;;;;;4.03;1.40;;;22.10;50.90;;;;;;5066782;28;45339;-71
2022/09/13 07:55:13;;;;;;;2.22;1.63;;;22.20;51.00;;;;;;5066464;28;45301;-72
2022/09/13 07:57:42;;;;;;;2.83;1.25;;;22.20;51.00;;;;;;5067090;28;45361;-72
2022/09/13 08:00:10;;;;;;;1.63;1.52;;;22.20;51.00;;;;;;5066653;28;45521;-72
2022/09/13 08:02:37;;;;;;;2.17;1.23;;;22.20;51.10;;;;;;5058167;28;45286;-73
2022/09/13 08:05:04;;;;;;;2.95;1.52;;;22.20;51.30;;;;;;5065735;28;45434;-72
2022/09/13 08:07:31;;;;;;;1.33;1.20;;;22.20;51.40;;;;;;5066852;28;45317;-72
2022/09/13 08:09:58;;;;;;;1.77;1.42;;;22.20;51.50;;;;;;5066510;28;45559;-72
2022/09/13 08:12:25;;;;;;;3.75;1.50;;;22.20;51.30;;;;;;5066402;28;45282;-72
2022/09/13 08:14:53;;;;;;;3.40;1.75;;;22.20;51.30;;;;;;5066667;28;45115;-72
2022/09/13 08:17:20;;;;;;;2.05;1.50;;;22.20;51.40;;;;;;5066421;28;45519;-72
2022/09/13 08:19:47;;;;;;;2.53;1.50;;;22.20;51.30;;;;;;5066103;28;45280;-72
2022/09/13 08:22:14;;;;;;;2.35;1.55;;;22.30;51.30;;;;;;5066483;28;45329;-73
2022/09/13 08:24:40;;;;;;;2.88;1.75;;;22.30;51.30;;;;;;5066868;28;45166;-72
2022/09/13 08:27:07;;;;;;;2.95;1.92;;;22.40;51.40;;;;;;5066137;28;45186;-72
2022/09/13 08:29:34;;;;;;;4.75;2.30;;;22.40;51.20;;;;;;5065932;28;45269;-72
2022/09/13 08:32:03;;;;;;;3.00;2.28;;;22.40;51.20;;;;;;5066125;28;45236;-72
2022/09/13 08:34:30;;;;;;;4.68;2.20;;;22.40;51.30;;;;;;5065639;28;45257;-71
2022/09/13 08:36:57;;;;;;;3.00;2.22;;;22.50;51.10;;;;;;5066268;28;45381;-72
2022/09/13 08:39:24;;;;;;;3.17;2.08;;;22.50;51.10;;;;;;5065944;28;45261;-71
2022/09/13 08:42:07;;;;;;;4.80;2.35;;;22.50;51.10;;;;;;5065964;28;45352;-72
2022/09/13 08:44:34;;;;;;;3.90;2.50;;;22.60;51.20;;;;;;5066403;28;45459;-72
2022/09/13 08:47:12;;;;;;;2.72;2.00;;;22.60;51.10;;;;;;5068734;28;45294;-71
2022/09/13 08:49:40;;;;;;;7.22;3.08;;;22.60;51.10;;;;;;5068285;28;45476;-71
2022/09/13 08:52:16;;;;;;;4.95;2.38;;;22.70;51.10;;;;;;5068189;28;45179;-71
2022/09/13 08:54:43;;;;;;;4.88;2.47;;;22.70;51.50;;;;;;5068545;28;45193;-71
2022/09/13 08:57:12;;;;;;;4.30;2.00;;;22.70;51.70;;;;;;5065973;28;45383;-71
2022/09/13 08:59:54;;;;;;;3.78;1.77;;;22.70;52.00;;;;;;5068226;28;45422;-71
2022/09/13 09:02:31;;;;;;;3.85;1.83;;;22.80;52.50;;;;;;5071135;28;45321;-71
2022/09/13 09:05:02;;;;;;;2.60;1.50;;;22.80;52.60;;;;;;5071650;28;45265;-71
2022/09/13 09:07:31;;;;;;;1.80;1.30;;;22.90;53.00;;;;;;5071624;28;45440;-72
2022/09/13 09:09:59;;;;;;;3.90;1.40;;;22.90;53.10;;;;;;5071103;28;46467;-72
2022/09/13 09:12:30;;;;;;;1.40;1.20;;;23.00;53.40;;;;;;5071188;28;45199;-72
2022/09/13 09:15:00;;;;;;;7.00;1.30;;;23.00;53.40;;;;;;5071339;28;45233;-71
2022/09/13 09:17:30;;;;;;;1.48;1.20;;;23.00;53.30;;;;;;5071447;28;45395;-71
2022/09/13 09:20:02;;;;;;;4.78;1.42;;;23.10;53.50;;;;;;5071204;28;45477;-72
2022/09/13 09:22:32;;;;;;;2.22;1.17;;;23.10;53.80;;;;;;5071479;28;45457;-72
2022/09/13 09:24:59;;;;;;;1.40;1.30;;;23.20;53.80;;;;;;5070830;28;45259;-72
2022/09/13 09:27:26;;;;;;;4.18;1.25;;;23.20;53.60;;;;;;5071056;28;45458;-72
2022/09/13 09:29:58;;;;;;;1.15;1.05;;;23.20;53.90;;;;;;5070408;28;45368;-72
2022/09/13 09:33:02;;;;;;;3.22;1.10;;;23.30;54.60;;;;;;5071032;28;45287;-72
2022/09/13 09:35:36;;;;;;;2.05;1.10;;;23.30;53.80;;;;;;4983554;28;45438;-71
2022/09/13 09:38:21;;;;;;;2.22;1.00;;;23.30;54.10;;;;;;5050838;28;45301;-71
2022/09/13 09:40:48;;;;;;;4.35;1.23;;;23.40;54.00;;;;;;5050508;28;45723;-70
2022/09/13 09:43:17;;;;;;;1.88;1.10;;;23.40;54.50;;;;;;5050178;28;45289;-69
2022/09/13 09:45:44;;;;;;;2.05;1.10;;;23.50;53.70;;;;;;5050368;28;45249;-69
2022/09/13 09:48:14;;;;;;;1.65;0.93;;;23.50;53.70;;;;;;5050187;28;45394;-69
2022/09/13 09:50:47;;;;;;;2.63;1.20;;;23.60;53.90;;;;;;5050453;28;45318;-71
2022/09/13 09:53:16;;;;;;;1.95;1.10;;;23.70;53.80;;;;;;5050419;28;45322;-70
2022/09/13 09:55:45;;;;;;;1.17;1.08;;;23.70;53.90;;;;;;5050718;28;45182;-70
2022/09/13 09:58:15;;;;;;;2.67;1.40;;;23.70;54.00;;;;;;5050351;28;45538;-70
2022/09/13 10:00:51;;;;;;;2.72;1.13;;;23.80;53.90;;;;;;5049916;28;45208;-69
2022/09/13 10:03:20;;;;;;;1.60;1.15;;;23.80;53.90;;;;;;5050297;28;45396;-69
2022/09/13 10:05:47;;;;;;;1.83;1.10;;;23.90;54.10;;;;;;5050610;28;44787;-70
2022/09/13 10:08:25;;;;;;;1.30;1.20;;;23.90;54.20;;;;;;5060395;28;45321;-70
2022/09/13 10:10:53;;;;;;;2.28;1.00;;;24.00;54.80;;;;;;5070221;28;46644;-70
2022/09/13 10:13:21;;;;;;;0.80;0.80;;;24.10;53.80;;;;;;5069544;28;45301;-70
2022/09/13 10:15:54;;;;;;;2.00;1.02;;;24.10;53.50;;;;;;5069822;28;45396;-68
2022/09/13 10:18:23;;;;;;;1.73;0.90;;;24.10;53.40;;;;;;5070069;28;45350;-70
2022/09/13 10:21:00;;;;;;;0.90;0.90;;;24.20;53.00;;;;;;5069040;28;45415;-70
2022/09/13 10:23:27;;;;;;;0.90;0.90;;;24.20;52.70;;;;;;5069358;28;45241;-70
2022/09/13 10:26:06;;;;;;;2.05;1.10;;;24.30;52.80;;;;;;5070214;28;45135;-70
2022/09/13 10:28:35;;;;;;;3.42;1.50;;;24.30;52.90;;;;;;5069918;28;45329;-70
2022/09/13 10:31:03;;;;;;;4.47;1.20;;;24.40;52.90;;;;;;5069625;28;45231;-69
2022/09/13 10:33:33;;;;;;;2.80;1.50;;;24.50;52.90;;;;;;5070032;28;45330;-69
2022/09/13 10:36:01;;;;;;;1.60;1.02;;;24.50;52.70;;;;;;5069952;28;45252;-68
2022/09/13 10:38:30;;;;;;;1.33;1.00;;;24.50;52.70;;;;;;5070055;28;45388;-69
2022/09/13 10:40:57;;;;;;;1.27;1.10;;;24.60;52.70;;;;;;5069302;28;46348;-69
2022/09/13 10:43:24;;;;;;;2.72;1.25;;;24.70;52.70;;;;;;5069731;28;45471;-69
2022/09/13 10:45:51;;;;;;;2.15;1.27;;;24.70;52.60;;;;;;5069605;28;45261;-69
2022/09/13 10:48:18;;;;;;;2.88;1.27;;;24.80;52.60;;;;;;5069797;28;45207;-69
2022/09/13 10:53:41;;;;;;;1.85;1.23;;;24.80;52.40;;;;;;5105799;27;45346;-72
2022/09/13 10:56:19;;;;;;;1.33;1.10;;;25.00;52.10;;;;;;5105861;27;45294;-72
2022/09/13 10:58:46;;;;;;;2.03;1.48;;;25.00;51.80;;;;;;5106491;27;45301;-72
2022/09/13 11:01:39;;;;;;;2.28;1.20;;;25.10;51.20;;;;;;5106481;27;45402;-71
2022/09/13 11:04:26;;;;;;;3.03;1.05;;;25.20;51.00;;;;;;5106023;27;46363;-72
2022/09/13 11:06:56;;;;;;;1.30;1.20;;;25.30;51.20;;;;;;5106116;27;45330;-73
2022/09/13 11:09:26;;;;;;;1.42;1.30;;;25.30;51.00;;;;;;5106608;27;45355;-72
2022/09/13 11:11:56;;;;;;;0.80;0.80;;;25.40;50.60;;;;;;5106773;27;45432;-72
2022/09/13 11:14:32;;;;;;;1.80;1.02;;;25.50;50.10;;;;;;5105836;27;46560;-73
2022/09/13 11:17:03;;;;;;;1.05;0.95;;;25.50;49.90;;;;;;5106456;27;45207;-73
2022/09/13 11:19:57;;;;;;;2.83;1.42;;;25.60;48.90;;;;;;5105936;27;45446;-73
2022/09/13 11:22:33;;;;;;;1.55;0.75;;;25.70;49.40;;;;;;5092012;27;45289;-72
2022/09/13 11:25:29;;;;;;;1.25;1.00;;;25.80;49.70;;;;;;5105410;27;46411;-72
2022/09/13 11:28:00;;;;;;;1.75;1.00;;;25.80;49.70;;;;;;5091052;27;45447;-72
2022/09/13 11:30:26;;;;;;;2.58;1.00;;;25.90;49.40;;;;;;5105716;27;45422;-72
2022/09/13 11:33:02;;;;;;;2.42;1.00;;;26.00;49.30;;;;;;5106712;27;45391;-73
2022/09/13 11:35:42;;;;;;;1.85;0.95;;;26.00;49.00;;;;;;5104887;27;45354;-73
2022/09/13 11:38:26;;;;;;;3.05;1.00;;;26.00;49.80;;;;;;5105285;27;45605;-72
2022/09/13 11:40:57;;;;;;;1.60;0.75;;;26.10;49.50;;;;;;5105784;27;45265;-72
2022/09/13 11:43:41;;;;;;;3.65;0.88;;;26.20;49.60;;;;;;5105896;27;45237;-73
2022/09/13 11:46:10;;;;;;;3.33;1.20;;;26.20;49.60;;;;;;5105185;27;46611;-72
2022/09/13 11:48:56;;;;;;;4.32;1.00;;;26.20;49.20;;;;;;5119115;27;45209;-73
2022/09/13 11:51:26;;;;;;;2.38;0.77;;;26.30;48.70;;;;;;5127369;27;45188;-73
2022/09/13 11:54:07;;;;;;;2.75;0.90;;;26.30;48.90;;;;;;5126652;27;45401;-72
2022/09/13 11:56:36;;;;;;;1.65;0.88;;;26.30;48.80;;;;;;5126067;27;47349;-73
2022/09/13 11:59:15;;;;;;;1.40;0.60;;;26.30;48.50;;;;;;5125762;27;45285;-73
2022/09/13 12:01:44;;;;;;;2.90;0.90;;;26.30;47.70;;;;;;5126033;27;45288;-73
2022/09/13 12:04:12;;;;;;;2.00;0.93;;;26.40;47.90;;;;;;5117057;27;45318;-74
2022/09/13 12:06:40;;;;;;;2.40;1.00;;;26.40;47.60;;;;;;5112143;27;46262;-73
2022/09/13 12:09:11;;;;;;;0.77;0.68;;;26.40;47.30;;;;;;5111258;27;45385;-71
2022/09/13 12:11:40;;;;;;;5.20;1.00;;;26.40;48.00;;;;;;5111800;27;45319;-74
2022/09/13 12:14:11;;;;;;;2.30;0.93;;;26.40;47.30;;;;;;5104987;27;45402;-73
2022/09/13 12:16:40;;;;;;;3.10;0.90;;;26.50;47.70;;;;;;5097647;27;46643;-72
2022/09/13 12:19:11;;;;;;;0.90;0.90;;;26.50;47.80;;;;;;5092196;27;45488;-71
2022/09/13 12:21:39;;;;;;;3.08;0.80;;;26.50;48.10;;;;;;5090948;27;45342;-75
2022/09/13 12:24:08;;;;;;;1.00;1.00;;;26.50;48.20;;;;;;5090530;27;45340;-72
2022/09/13 12:26:37;;;;;;;0.82;0.70;;;26.50;48.30;;;;;;5089823;27;46623;-72
2022/09/13 12:29:11;;;;;;;0.80;0.80;;;26.60;48.30;;;;;;5090719;27;45330;-72
2022/09/13 12:31:38;;;;;;;1.35;0.93;;;26.60;48.10;;;;;;5091166;27;45141;-72
2022/09/13 12:34:05;;;;;;;2.95;1.85;;;26.60;47.90;;;;;;5087077;27;45438;-71
2022/09/13 12:36:53;;;;;;;4.63;2.92;;;26.60;47.80;;;;;;5091396;27;46378;-72
2022/09/13 12:40:13;;;;;;;3.08;2.13;;;26.60;47.80;;;;;;5091700;27;45175;-72
2022/09/13 12:43:06;;;;;;;3.63;1.45;;;26.70;47.90;;;;;;5034218;28;45505;-74
2022/09/13 12:45:53;;;;;;;2.38;1.48;;;26.70;48.20;;;;;;5088969;27;45322;-74
2022/09/13 12:48:33;;;;;;;3.20;1.27;;;26.70;48.20;;;;;;5085053;27;46622;-74
2022/09/13 12:51:07;;;;;;;2.30;1.20;;;26.80;48.40;;;;;;5092194;27;45344;-73
2022/09/13 12:54:04;;;;;;;1.77;1.20;;;26.80;48.50;;;;;;5090418;27;45192;-74
2022/09/13 12:56:44;;;;;;;3.97;1.55;;;26.80;48.50;;;;;;5090152;27;45392;-73
2022/09/13 12:59:25;;;;;;;1.40;1.27;;;26.80;48.50;;;;;;5090049;27;45236;-72
2022/09/13 13:01:53;;;;;;;1.80;1.20;;;26.90;48.40;;;;;;5090353;27;45194;-73
2022/09/13 13:04:22;;;;;;;1.88;1.10;;;26.90;48.10;;;;;;5089867;27;45483;-72
2022/09/13 13:06:50;;;;;;;1.58;1.15;;;26.90;47.80;;;;;;5089869;27;45517;-73